sensor_id;sensor_type;location;lat;lon;timestamp;P1;durP1;ratioP1;P2;durP2;ratioP2
75864;SDS011;64510;46.704;38.274;2023-03-23T00:01:13;34.45;;;17.77;;
75864;SDS011;64510;46.704;38.274;2023-03-23T00:03:50;29.83;;;17.15;;
75864;SDS011;64510;46.704;38.274;2023-03-23T00:06:19;31.75;;;17.05;;
75864;SDS011;64510;46.704;38.274;2023-03-23T00:08:48;31.05;;;16.38;;
75864;SDS011;64510;46.704;38.274;2023-03-23T00:11:23;36.20;;;17.48;;
75864;SDS011;64510;46.704;38.274;2023-03-23T00:13:52;34.70;;;16.98;;
75864;SDS011;64510;46.704;38.274;2023-03-23T00:16:19;44.13;;;18.02;;
75864;SDS011;64510;46.704;38.274;2023-03-23T00:18:54;34.35;;;18.65;;
75864;SDS011;64510;46.704;38.274;2023-03-23T00:21:22;35.70;;;19.00;;
75864;SDS011;64510;46.704;38.274;2023-03-23T00:24:03;35.88;;;18.30;;
75864;SDS011;64510;46.704;38.274;2023-03-23T00:26:35;35.90;;;19.73;;
75864;SDS011;64510;46.704;38.274;2023-03-23T00:29:06;28.90;;;16.65;;
75864;SDS011;64510;46.704;38.274;2023-03-23T00:31:35;38.92;;;17.33;;
75864;SDS011;64510;46.704;38.274;2023-03-23T00:34:02;38.58;;;19.33;;
75864;SDS011;64510;46.704;38.274;2023-03-23T00:36:30;33.53;;;16.70;;
75864;SDS011;64510;46.704;38.274;2023-03-23T00:38:57;31.00;;;16.73;;
75864;SDS011;64510;46.704;38.274;2023-03-23T00:41:25;30.35;;;16.15;;
75864;SDS011;64510;46.704;38.274;2023-03-23T00:43:55;40.42;;;17.10;;
75864;SDS011;64510;46.704;38.274;2023-03-23T00:46:23;22.55;;;14.40;;
75864;SDS011;64510;46.704;38.274;2023-03-23T00:48:50;32.75;;;17.25;;
75864;SDS011;64510;46.704;38.274;2023-03-23T00:51:17;27.92;;;14.45;;
75864;SDS011;64510;46.704;38.274;2023-03-23T00:53:43;33.22;;;18.05;;
75864;SDS011;64510;46.704;38.274;2023-03-23T00:56:10;30.85;;;16.52;;
75864;SDS011;64510;46.704;38.274;2023-03-23T00:58:36;37.17;;;17.00;;
75864;SDS011;64510;46.704;38.274;2023-03-23T01:01:02;32.28;;;16.80;;
75864;SDS011;64510;46.704;38.274;2023-03-23T01:03:29;31.85;;;15.43;;
75864;SDS011;64510;46.704;38.274;2023-03-23T01:05:58;28.25;;;17.45;;
75864;SDS011;64510;46.704;38.274;2023-03-23T01:08:33;28.58;;;15.13;;
75864;SDS011;64510;46.704;38.274;2023-03-23T01:11:03;29.27;;;16.00;;
75864;SDS011;64510;46.704;38.274;2023-03-23T01:13:31;31.35;;;16.92;;
75864;SDS011;64510;46.704;38.274;2023-03-23T01:15:57;35.20;;;16.77;;
75864;SDS011;64510;46.704;38.274;2023-03-23T01:18:22;29.67;;;15.38;;
75864;SDS011;64510;46.704;38.274;2023-03-23T01:20:49;31.70;;;17.52;;
75864;SDS011;64510;46.704;38.274;2023-03-23T01:23:15;25.13;;;15.10;;
75864;SDS011;64510;46.704;38.274;2023-03-23T01:25:41;25.98;;;13.75;;
75864;SDS011;64510;46.704;38.274;2023-03-23T01:28:06;31.40;;;16.45;;
75864;SDS011;64510;46.704;38.274;2023-03-23T01:30:32;21.40;;;13.77;;
75864;SDS011;64510;46.704;38.274;2023-03-23T01:32:58;27.42;;;16.23;;
75864;SDS011;64510;46.704;38.274;2023-03-23T01:35:24;23.90;;;14.43;;
75864;SDS011;64510;46.704;38.274;2023-03-23T01:37:51;33.85;;;17.00;;
75864;SDS011;64510;46.704;38.274;2023-03-23T01:40:17;33.30;;;16.15;;
75864;SDS011;64510;46.704;38.274;2023-03-23T01:42:43;36.60;;;18.25;;
75864;SDS011;64510;46.704;38.274;2023-03-23T01:47:48;38.95;;;18.85;;
75864;SDS011;64510;46.704;38.274;2023-03-23T01:50:18;38.17;;;19.88;;
75864;SDS011;64510;46.704;38.274;2023-03-23T01:52:48;46.65;;;19.15;;
75864;SDS011;64510;46.704;38.274;2023-03-23T01:55:16;29.60;;;15.23;;
75864;SDS011;64510;46.704;38.274;2023-03-23T01:57:43;24.05;;;15.57;;
75864;SDS011;64510;46.704;38.274;2023-03-23T02:00:12;33.92;;;16.23;;
75864;SDS011;64510;46.704;38.274;2023-03-23T02:02:49;35.80;;;18.17;;
75864;SDS011;64510;46.704;38.274;2023-03-23T02:05:21;26.48;;;13.75;;
75864;SDS011;64510;46.704;38.274;2023-03-23T02:08:32;25.48;;;15.63;;
75864;SDS011;64510;46.704;38.274;2023-03-23T02:11:00;29.67;;;16.08;;
75864;SDS011;64510;46.704;38.274;2023-03-23T02:13:27;29.65;;;14.88;;
75864;SDS011;64510;46.704;38.274;2023-03-23T02:21:47;28.27;;;15.45;;
75864;SDS011;64510;46.704;38.274;2023-03-23T02:35:43;25.23;;;14.10;;
75864;SDS011;64510;46.704;38.274;2023-03-23T02:39:16;18.65;;;10.48;;
75864;SDS011;64510;46.704;38.274;2023-03-23T02:41:27;28.13;;;13.57;;
75864;SDS011;64510;46.704;38.274;2023-03-23T02:43:57;29.90;;;14.07;;
75864;SDS011;64510;46.704;38.274;2023-03-23T02:46:24;30.10;;;14.85;;
75864;SDS011;64510;46.704;38.274;2023-03-23T02:48:50;25.00;;;16.33;;
75864;SDS011;64510;46.704;38.274;2023-03-23T02:51:22;29.35;;;14.82;;
75864;SDS011;64510;46.704;38.274;2023-03-23T02:53:49;27.85;;;17.60;;
75864;SDS011;64510;46.704;38.274;2023-03-23T02:56:18;30.27;;;14.05;;
75864;SDS011;64510;46.704;38.274;2023-03-23T02:58:46;33.53;;;17.23;;
75864;SDS011;64510;46.704;38.274;2023-03-23T03:01:44;30.35;;;16.83;;
75864;SDS011;64510;46.704;38.274;2023-03-23T03:03:59;30.85;;;14.10;;
75864;SDS011;64510;46.704;38.274;2023-03-23T03:12:19;25.38;;;14.93;;
75864;SDS011;64510;46.704;38.274;2023-03-23T03:15:01;21.02;;;12.82;;
75864;SDS011;64510;46.704;38.274;2023-03-23T03:17:40;29.80;;;14.23;;
75864;SDS011;64510;46.704;38.274;2023-03-23T03:20:10;28.27;;;14.75;;
75864;SDS011;64510;46.704;38.274;2023-03-23T03:22:39;23.60;;;14.43;;
75864;SDS011;64510;46.704;38.274;2023-03-23T03:25:08;26.20;;;13.80;;
75864;SDS011;64510;46.704;38.274;2023-03-23T03:27:39;25.40;;;13.55;;
75864;SDS011;64510;46.704;38.274;2023-03-23T03:30:13;25.20;;;11.95;;
75864;SDS011;64510;46.704;38.274;2023-03-23T03:32:44;27.92;;;13.32;;
75864;SDS011;64510;46.704;38.274;2023-03-23T03:35:15;29.60;;;15.25;;
75864;SDS011;64510;46.704;38.274;2023-03-23T03:37:41;23.75;;;12.60;;
75864;SDS011;64510;46.704;38.274;2023-03-23T03:40:09;28.77;;;12.10;;
75864;SDS011;64510;46.704;38.274;2023-03-23T03:42:39;23.98;;;11.20;;
75864;SDS011;64510;46.704;38.274;2023-03-23T03:45:08;25.80;;;13.00;;
75864;SDS011;64510;46.704;38.274;2023-03-23T03:47:37;21.58;;;12.30;;
75864;SDS011;64510;46.704;38.274;2023-03-23T03:50:03;19.05;;;11.73;;
75864;SDS011;64510;46.704;38.274;2023-03-23T03:52:30;22.02;;;11.90;;
75864;SDS011;64510;46.704;38.274;2023-03-23T03:54:57;21.15;;;12.35;;
75864;SDS011;64510;46.704;38.274;2023-03-23T03:57:24;19.70;;;12.05;;
75864;SDS011;64510;46.704;38.274;2023-03-23T04:00:06;20.98;;;10.75;;
75864;SDS011;64510;46.704;38.274;2023-03-23T04:02:45;15.55;;;9.88;;
75864;SDS011;64510;46.704;38.274;2023-03-23T04:05:16;15.90;;;10.07;;
75864;SDS011;64510;46.704;38.274;2023-03-23T04:07:46;22.45;;;11.00;;
75864;SDS011;64510;46.704;38.274;2023-03-23T04:10:14;20.00;;;10.00;;
75864;SDS011;64510;46.704;38.274;2023-03-23T04:12:43;21.98;;;11.80;;
75864;SDS011;64510;46.704;38.274;2023-03-23T04:15:27;16.05;;;8.70;;
75864;SDS011;64510;46.704;38.274;2023-03-23T04:17:54;19.25;;;10.82;;
75864;SDS011;64510;46.704;38.274;2023-03-23T04:20:23;19.65;;;11.65;;
75864;SDS011;64510;46.704;38.274;2023-03-23T04:22:50;21.02;;;10.85;;
75864;SDS011;64510;46.704;38.274;2023-03-23T04:25:19;20.58;;;10.82;;
75864;SDS011;64510;46.704;38.274;2023-03-23T04:27:51;24.63;;;12.30;;
75864;SDS011;64510;46.704;38.274;2023-03-23T04:30:28;28.13;;;14.07;;
75864;SDS011;64510;46.704;38.274;2023-03-23T04:33:02;27.35;;;11.88;;
75864;SDS011;64510;46.704;38.274;2023-03-23T04:35:29;19.20;;;11.25;;
75864;SDS011;64510;46.704;38.274;2023-03-23T04:38:08;18.17;;;9.27;;
75864;SDS011;64510;46.704;38.274;2023-03-23T04:40:36;28.90;;;14.15;;
75864;SDS011;64510;46.704;38.274;2023-03-23T04:43:14;21.13;;;11.82;;
75864;SDS011;64510;46.704;38.274;2023-03-23T04:45:52;25.08;;;9.73;;
75864;SDS011;64510;46.704;38.274;2023-03-23T04:48:23;23.00;;;12.52;;
75864;SDS011;64510;46.704;38.274;2023-03-23T04:51:07;17.75;;;10.63;;
75864;SDS011;64510;46.704;38.274;2023-03-23T04:53:34;26.70;;;10.35;;
75864;SDS011;64510;46.704;38.274;2023-03-23T04:56:01;20.15;;;11.68;;
75864;SDS011;64510;46.704;38.274;2023-03-23T04:58:33;17.15;;;9.73;;
75864;SDS011;64510;46.704;38.274;2023-03-23T05:01:17;19.75;;;11.73;;
75864;SDS011;64510;46.704;38.274;2023-03-23T05:04:06;20.85;;;11.55;;
75864;SDS011;64510;46.704;38.274;2023-03-23T05:06:33;20.70;;;10.60;;
75864;SDS011;64510;46.704;38.274;2023-03-23T05:09:06;17.88;;;11.50;;
75864;SDS011;64510;46.704;38.274;2023-03-23T05:11:32;18.67;;;10.90;;
75864;SDS011;64510;46.704;38.274;2023-03-23T05:13:58;23.70;;;10.32;;
75864;SDS011;64510;46.704;38.274;2023-03-23T05:16:24;22.48;;;10.90;;
75864;SDS011;64510;46.704;38.274;2023-03-23T05:18:50;18.42;;;10.73;;
75864;SDS011;64510;46.704;38.274;2023-03-23T05:21:18;19.20;;;10.43;;
75864;SDS011;64510;46.704;38.274;2023-03-23T05:23:50;20.88;;;12.68;;
75864;SDS011;64510;46.704;38.274;2023-03-23T05:26:21;17.08;;;10.63;;
75864;SDS011;64510;46.704;38.274;2023-03-23T05:28:51;21.85;;;11.85;;
75864;SDS011;64510;46.704;38.274;2023-03-23T05:31:22;18.73;;;10.45;;
75864;SDS011;64510;46.704;38.274;2023-03-23T05:33:50;24.38;;;10.95;;
75864;SDS011;64510;46.704;38.274;2023-03-23T05:36:39;21.38;;;9.85;;
75864;SDS011;64510;46.704;38.274;2023-03-23T05:39:24;22.70;;;11.00;;
75864;SDS011;64510;46.704;38.274;2023-03-23T05:42:16;20.70;;;10.23;;
75864;SDS011;64510;46.704;38.274;2023-03-23T05:44:49;18.35;;;10.23;;
75864;SDS011;64510;46.704;38.274;2023-03-23T05:47:16;16.52;;;9.45;;
75864;SDS011;64510;46.704;38.274;2023-03-23T05:49:49;26.48;;;10.43;;
75864;SDS011;64510;46.704;38.274;2023-03-23T05:52:18;16.63;;;10.57;;
75864;SDS011;64510;46.704;38.274;2023-03-23T05:54:45;19.50;;;9.43;;
75864;SDS011;64510;46.704;38.274;2023-03-23T05:57:12;18.10;;;11.25;;
75864;SDS011;64510;46.704;38.274;2023-03-23T05:59:49;25.80;;;10.48;;
75864;SDS011;64510;46.704;38.274;2023-03-23T06:02:20;24.40;;;13.00;;
75864;SDS011;64510;46.704;38.274;2023-03-23T06:04:46;26.85;;;12.32;;
75864;SDS011;64510;46.704;38.274;2023-03-23T06:07:25;15.43;;;10.80;;
75864;SDS011;64510;46.704;38.274;2023-03-23T06:09:57;20.73;;;11.13;;
75864;SDS011;64510;46.704;38.274;2023-03-23T06:12:23;20.38;;;10.43;;
75864;SDS011;64510;46.704;38.274;2023-03-23T06:15:08;22.30;;;10.52;;
75864;SDS011;64510;46.704;38.274;2023-03-23T06:18:00;25.48;;;11.20;;
75864;SDS011;64510;46.704;38.274;2023-03-23T06:20:54;22.95;;;10.98;;
75864;SDS011;64510;46.704;38.274;2023-03-23T06:23:40;24.70;;;11.48;;
75864;SDS011;64510;46.704;38.274;2023-03-23T06:26:07;23.73;;;10.25;;
75864;SDS011;64510;46.704;38.274;2023-03-23T06:28:36;22.83;;;12.07;;
75864;SDS011;64510;46.704;38.274;2023-03-23T06:31:04;20.73;;;10.25;;
75864;SDS011;64510;46.704;38.274;2023-03-23T06:33:36;19.15;;;8.48;;
75864;SDS011;64510;46.704;38.274;2023-03-23T06:36:03;20.52;;;10.95;;
75864;SDS011;64510;46.704;38.274;2023-03-23T06:38:52;17.67;;;11.05;;
75864;SDS011;64510;46.704;38.274;2023-03-23T06:41:26;16.27;;;8.27;;
75864;SDS011;64510;46.704;38.274;2023-03-23T06:43:52;16.67;;;9.00;;
75864;SDS011;64510;46.704;38.274;2023-03-23T06:46:24;21.88;;;12.00;;
75864;SDS011;64510;46.704;38.274;2023-03-23T06:49:08;17.08;;;9.52;;
75864;SDS011;64510;46.704;38.274;2023-03-23T06:51:44;16.85;;;9.07;;
75864;SDS011;64510;46.704;38.274;2023-03-23T06:54:11;28.02;;;11.50;;
75864;SDS011;64510;46.704;38.274;2023-03-23T06:56:40;16.65;;;9.02;;
75864;SDS011;64510;46.704;38.274;2023-03-23T06:59:07;13.75;;;7.68;;
75864;SDS011;64510;46.704;38.274;2023-03-23T07:01:36;22.58;;;9.68;;
75864;SDS011;64510;46.704;38.274;2023-03-23T07:04:02;12.05;;;7.65;;
75864;SDS011;64510;46.704;38.274;2023-03-23T07:06:43;20.73;;;9.63;;
75864;SDS011;64510;46.704;38.274;2023-03-23T07:09:09;18.33;;;10.80;;
75864;SDS011;64510;46.704;38.274;2023-03-23T07:11:35;18.63;;;9.02;;
75864;SDS011;64510;46.704;38.274;2023-03-23T07:14:09;24.83;;;10.48;;
75864;SDS011;64510;46.704;38.274;2023-03-23T07:16:35;18.13;;;10.00;;
75864;SDS011;64510;46.704;38.274;2023-03-23T07:19:02;23.85;;;9.90;;
75864;SDS011;64510;46.704;38.274;2023-03-23T07:21:28;8.13;;;7.10;;
75864;SDS011;64510;46.704;38.274;2023-03-23T07:23:55;19.88;;;10.48;;
75864;SDS011;64510;46.704;38.274;2023-03-23T07:26:41;16.42;;;9.23;;
75864;SDS011;64510;46.704;38.274;2023-03-23T07:29:10;16.33;;;9.35;;
75864;SDS011;64510;46.704;38.274;2023-03-23T07:31:40;18.17;;;9.95;;
75864;SDS011;64510;46.704;38.274;2023-03-23T07:34:08;10.50;;;7.57;;
75864;SDS011;64510;46.704;38.274;2023-03-23T07:36:56;20.90;;;13.20;;
75864;SDS011;64510;46.704;38.274;2023-03-23T07:39:24;14.20;;;8.50;;
75864;SDS011;64510;46.704;38.274;2023-03-23T07:41:53;18.60;;;8.73;;
75864;SDS011;64510;46.704;38.274;2023-03-23T07:44:32;27.65;;;8.38;;
75864;SDS011;64510;46.704;38.274;2023-03-23T07:47:05;16.77;;;9.88;;
75864;SDS011;64510;46.704;38.274;2023-03-23T07:49:32;15.68;;;8.68;;
75864;SDS011;64510;46.704;38.274;2023-03-23T07:52:10;22.10;;;8.80;;
75864;SDS011;64510;46.704;38.274;2023-03-23T07:54:38;17.92;;;8.20;;
75864;SDS011;64510;46.704;38.274;2023-03-23T07:57:27;22.67;;;9.73;;
75864;SDS011;64510;46.704;38.274;2023-03-23T07:59:56;17.15;;;9.57;;
75864;SDS011;64510;46.704;38.274;2023-03-23T08:02:23;20.50;;;10.98;;
75864;SDS011;64510;46.704;38.274;2023-03-23T08:05:08;22.30;;;10.85;;
75864;SDS011;64510;46.704;38.274;2023-03-23T08:07:54;24.20;;;9.80;;
75864;SDS011;64510;46.704;38.274;2023-03-23T08:10:50;26.35;;;10.40;;
75864;SDS011;64510;46.704;38.274;2023-03-23T08:13:35;14.52;;;8.50;;
75864;SDS011;64510;46.704;38.274;2023-03-23T08:16:30;17.77;;;7.97;;
75864;SDS011;64510;46.704;38.274;2023-03-23T08:19:25;18.15;;;9.95;;
75864;SDS011;64510;46.704;38.274;2023-03-23T08:22:11;13.80;;;7.18;;
75864;SDS011;64510;46.704;38.274;2023-03-23T08:25:02;14.90;;;8.57;;
75864;SDS011;64510;46.704;38.274;2023-03-23T08:28:00;19.60;;;10.35;;
75864;SDS011;64510;46.704;38.274;2023-03-23T08:30:55;17.02;;;9.05;;
75864;SDS011;64510;46.704;38.274;2023-03-23T08:33:53;28.63;;;11.60;;
75864;SDS011;64510;46.704;38.274;2023-03-23T08:36:38;15.27;;;8.80;;
75864;SDS011;64510;46.704;38.274;2023-03-23T08:39:20;21.20;;;9.45;;
75864;SDS011;64510;46.704;38.274;2023-03-23T08:42:26;27.50;;;12.20;;
75864;SDS011;64510;46.704;38.274;2023-03-23T08:45:17;18.98;;;9.82;;
75864;SDS011;64510;46.704;38.274;2023-03-23T08:51:02;22.75;;;10.18;;
75864;SDS011;64510;46.704;38.274;2023-03-23T08:53:41;23.25;;;10.30;;
75864;SDS011;64510;46.704;38.274;2023-03-23T08:56:43;13.43;;;8.70;;
75864;SDS011;64510;46.704;38.274;2023-03-23T08:59:29;26.60;;;12.77;;
75864;SDS011;64510;46.704;38.274;2023-03-23T09:02:11;23.08;;;11.32;;
75864;SDS011;64510;46.704;38.274;2023-03-23T09:05:04;24.63;;;12.32;;
75864;SDS011;64510;46.704;38.274;2023-03-23T09:07:51;13.38;;;8.50;;
75864;SDS011;64510;46.704;38.274;2023-03-23T09:10:19;20.52;;;11.20;;
75864;SDS011;64510;46.704;38.274;2023-03-23T09:12:46;19.88;;;11.15;;
75864;SDS011;64510;46.704;38.274;2023-03-23T09:15:13;20.45;;;10.15;;
75864;SDS011;64510;46.704;38.274;2023-03-23T09:17:42;26.63;;;12.90;;
75864;SDS011;64510;46.704;38.274;2023-03-23T09:20:13;18.00;;;10.63;;
75864;SDS011;64510;46.704;38.274;2023-03-23T09:22:41;25.08;;;13.10;;
75864;SDS011;64510;46.704;38.274;2023-03-23T09:25:13;23.00;;;11.15;;
75864;SDS011;64510;46.704;38.274;2023-03-23T09:27:41;20.33;;;12.77;;
75864;SDS011;64510;46.704;38.274;2023-03-23T09:30:08;23.67;;;11.15;;
75864;SDS011;64510;46.704;38.274;2023-03-23T09:32:37;24.42;;;12.50;;
75864;SDS011;64510;46.704;38.274;2023-03-23T09:35:04;22.27;;;12.45;;
75864;SDS011;64510;46.704;38.274;2023-03-23T09:37:37;20.35;;;11.10;;
75864;SDS011;64510;46.704;38.274;2023-03-23T09:40:05;26.70;;;13.15;;
75864;SDS011;64510;46.704;38.274;2023-03-23T09:53:49;29.35;;;15.05;;
75864;SDS011;64510;46.704;38.274;2023-03-23T09:56:19;28.30;;;14.60;;
75864;SDS011;64510;46.704;38.274;2023-03-23T10:01:27;21.77;;;12.60;;
75864;SDS011;64510;46.704;38.274;2023-03-23T10:06:50;24.55;;;13.82;;
75864;SDS011;64510;46.704;38.274;2023-03-23T10:09:17;25.00;;;14.65;;
75864;SDS011;64510;46.704;38.274;2023-03-23T10:19:35;21.35;;;12.38;;
75864;SDS011;64510;46.704;38.274;2023-03-23T10:22:04;29.80;;;13.13;;
75864;SDS011;64510;46.704;38.274;2023-03-23T10:24:35;22.30;;;12.98;;
75864;SDS011;64510;46.704;38.274;2023-03-23T10:27:19;22.70;;;12.40;;
75864;SDS011;64510;46.704;38.274;2023-03-23T10:35:17;22.77;;;12.85;;
75864;SDS011;64510;46.704;38.274;2023-03-23T10:37:48;23.85;;;11.93;;
75864;SDS011;64510;46.704;38.274;2023-03-23T10:40:22;23.30;;;11.80;;
75864;SDS011;64510;46.704;38.274;2023-03-23T10:42:51;22.17;;;11.10;;
75864;SDS011;64510;46.704;38.274;2023-03-23T10:45:38;21.77;;;10.25;;
75864;SDS011;64510;46.704;38.274;2023-03-23T10:48:11;24.40;;;9.07;;
75864;SDS011;64510;46.704;38.274;2023-03-23T10:50:41;18.25;;;10.52;;
75864;SDS011;64510;46.704;38.274;2023-03-23T10:53:13;18.35;;;9.63;;
75864;SDS011;64510;46.704;38.274;2023-03-23T10:55:42;17.50;;;9.32;;
75864;SDS011;64510;46.704;38.274;2023-03-23T10:58:21;17.48;;;9.48;;
75864;SDS011;64510;46.704;38.274;2023-03-23T11:00:50;21.30;;;9.98;;
75864;SDS011;64510;46.704;38.274;2023-03-23T11:06:01;21.05;;;11.10;;
75864;SDS011;64510;46.704;38.274;2023-03-23T11:08:30;20.63;;;10.98;;
75864;SDS011;64510;46.704;38.274;2023-03-23T11:11:18;21.13;;;12.02;;
75864;SDS011;64510;46.704;38.274;2023-03-23T11:13:50;25.27;;;12.68;;
75864;SDS011;64510;46.704;38.274;2023-03-23T11:16:24;15.57;;;9.10;;
75864;SDS011;64510;46.704;38.274;2023-03-23T11:18:56;22.55;;;11.85;;
75864;SDS011;64510;46.704;38.274;2023-03-23T11:21:36;23.42;;;12.00;;
75864;SDS011;64510;46.704;38.274;2023-03-23T11:24:03;19.85;;;10.32;;
75864;SDS011;64510;46.704;38.274;2023-03-23T11:26:34;22.20;;;13.18;;
75864;SDS011;64510;46.704;38.274;2023-03-23T11:29:09;19.10;;;12.88;;
75864;SDS011;64510;46.704;38.274;2023-03-23T11:31:42;20.38;;;10.77;;
75864;SDS011;64510;46.704;38.274;2023-03-23T11:34:44;22.70;;;14.68;;
75864;SDS011;64510;46.704;38.274;2023-03-23T11:37:10;22.63;;;13.30;;
75864;SDS011;64510;46.704;38.274;2023-03-23T11:39:46;21.10;;;12.95;;
75864;SDS011;64510;46.704;38.274;2023-03-23T11:42:16;27.67;;;14.38;;
75864;SDS011;64510;46.704;38.274;2023-03-23T11:44:44;26.48;;;16.15;;
75864;SDS011;64510;46.704;38.274;2023-03-23T11:47:27;35.58;;;15.80;;
75864;SDS011;64510;46.704;38.274;2023-03-23T11:50:15;25.27;;;13.70;;
75864;SDS011;64510;46.704;38.274;2023-03-23T11:55:22;22.25;;;12.40;;
75864;SDS011;64510;46.704;38.274;2023-03-23T11:57:52;21.65;;;11.88;;
75864;SDS011;64510;46.704;38.274;2023-03-23T12:00:21;23.13;;;9.95;;
75864;SDS011;64510;46.704;38.274;2023-03-23T12:06:05;11.27;;;6.68;;
75864;SDS011;64510;46.704;38.274;2023-03-23T12:14:13;13.25;;;8.80;;
75864;SDS011;64510;46.704;38.274;2023-03-23T12:17:47;16.38;;;8.73;;
75864;SDS011;64510;46.704;38.274;2023-03-23T12:22:37;18.98;;;9.45;;
75864;SDS011;64510;46.704;38.274;2023-03-23T12:30:31;13.50;;;8.38;;
75864;SDS011;64510;46.704;38.274;2023-03-23T12:38:40;14.55;;;8.70;;
75864;SDS011;64510;46.704;38.274;2023-03-23T12:41:29;18.08;;;8.15;;
75864;SDS011;64510;46.704;38.274;2023-03-23T12:44:13;14.18;;;7.43;;
75864;SDS011;64510;46.704;38.274;2023-03-23T12:49:52;19.77;;;8.90;;
75864;SDS011;64510;46.704;38.274;2023-03-23T12:55:01;15.75;;;8.98;;
75864;SDS011;64510;46.704;38.274;2023-03-23T12:57:36;27.75;;;10.43;;
75864;SDS011;64510;46.704;38.274;2023-03-23T13:03:04;20.83;;;8.95;;
75864;SDS011;64510;46.704;38.274;2023-03-23T13:05:51;21.92;;;8.60;;
75864;SDS011;64510;46.704;38.274;2023-03-23T13:08:30;14.13;;;7.90;;
75864;SDS011;64510;46.704;38.274;2023-03-23T13:11:22;18.02;;;8.60;;
75864;SDS011;64510;46.704;38.274;2023-03-23T13:13:55;17.17;;;8.40;;
75864;SDS011;64510;46.704;38.274;2023-03-23T13:16:49;18.70;;;10.25;;
75864;SDS011;64510;46.704;38.274;2023-03-23T13:19:32;14.70;;;8.05;;
75864;SDS011;64510;46.704;38.274;2023-03-23T13:22:18;19.15;;;8.98;;
75864;SDS011;64510;46.704;38.274;2023-03-23T13:24:56;17.48;;;9.77;;
75864;SDS011;64510;46.704;38.274;2023-03-23T13:27:26;22.23;;;10.88;;
75864;SDS011;64510;46.704;38.274;2023-03-23T13:29:54;36.58;;;10.57;;
75864;SDS011;64510;46.704;38.274;2023-03-23T13:32:21;17.63;;;9.00;;
75864;SDS011;64510;46.704;38.274;2023-03-23T13:34:49;26.30;;;9.63;;
75864;SDS011;64510;46.704;38.274;2023-03-23T13:39:55;17.83;;;10.10;;
75864;SDS011;64510;46.704;38.274;2023-03-23T13:42:27;20.70;;;10.10;;
75864;SDS011;64510;46.704;38.274;2023-03-23T13:45:23;15.10;;;9.38;;
75864;SDS011;64510;46.704;38.274;2023-03-23T13:48:16;18.35;;;8.57;;
75864;SDS011;64510;46.704;38.274;2023-03-23T13:53:26;16.58;;;7.65;;
75864;SDS011;64510;46.704;38.274;2023-03-23T14:01:56;31.30;;;13.00;;
75864;SDS011;64510;46.704;38.274;2023-03-23T14:04:43;17.00;;;8.05;;
75864;SDS011;64510;46.704;38.274;2023-03-23T14:07:15;32.67;;;10.63;;
75864;SDS011;64510;46.704;38.274;2023-03-23T14:09:44;18.65;;;9.48;;
75864;SDS011;64510;46.704;38.274;2023-03-23T14:12:44;17.58;;;9.27;;
75864;SDS011;64510;46.704;38.274;2023-03-23T14:15:03;18.55;;;9.52;;
75864;SDS011;64510;46.704;38.274;2023-03-23T14:17:33;19.00;;;9.48;;
75864;SDS011;64510;46.704;38.274;2023-03-23T14:20:06;17.67;;;8.90;;
75864;SDS011;64510;46.704;38.274;2023-03-23T14:22:38;12.20;;;5.88;;
75864;SDS011;64510;46.704;38.274;2023-03-23T14:25:25;13.65;;;8.95;;
75864;SDS011;64510;46.704;38.274;2023-03-23T14:27:53;24.58;;;8.85;;
75864;SDS011;64510;46.704;38.274;2023-03-23T14:30:21;18.52;;;8.10;;
75864;SDS011;64510;46.704;38.274;2023-03-23T14:32:51;23.08;;;10.35;;
75864;SDS011;64510;46.704;38.274;2023-03-23T14:37:54;15.15;;;8.27;;
75864;SDS011;64510;46.704;38.274;2023-03-23T14:40:21;21.85;;;12.60;;
75864;SDS011;64510;46.704;38.274;2023-03-23T14:42:47;17.35;;;8.55;;
75864;SDS011;64510;46.704;38.274;2023-03-23T14:45:17;20.23;;;9.50;;
75864;SDS011;64510;46.704;38.274;2023-03-23T14:47:48;22.25;;;10.18;;
75864;SDS011;64510;46.704;38.274;2023-03-23T14:50:27;16.85;;;9.85;;
75864;SDS011;64510;46.704;38.274;2023-03-23T14:53:01;18.25;;;8.80;;
75864;SDS011;64510;46.704;38.274;2023-03-23T14:55:35;21.27;;;9.93;;
75864;SDS011;64510;46.704;38.274;2023-03-23T14:58:07;22.45;;;10.98;;
75864;SDS011;64510;46.704;38.274;2023-03-23T15:00:36;17.85;;;10.10;;
75864;SDS011;64510;46.704;38.274;2023-03-23T15:03:10;19.42;;;10.65;;
75864;SDS011;64510;46.704;38.274;2023-03-23T15:05:43;13.30;;;8.52;;
75864;SDS011;64510;46.704;38.274;2023-03-23T15:08:14;17.27;;;8.98;;
75864;SDS011;64510;46.704;38.274;2023-03-23T15:10:51;15.73;;;8.88;;
75864;SDS011;64510;46.704;38.274;2023-03-23T15:13:41;17.30;;;9.93;;
75864;SDS011;64510;46.704;38.274;2023-03-23T15:16:14;22.73;;;10.70;;
75864;SDS011;64510;46.704;38.274;2023-03-23T15:19:02;19.58;;;10.90;;
75864;SDS011;64510;46.704;38.274;2023-03-23T15:21:46;12.98;;;7.05;;
75864;SDS011;64510;46.704;38.274;2023-03-23T15:26:51;19.30;;;10.55;;
75864;SDS011;64510;46.704;38.274;2023-03-23T15:29:19;26.52;;;10.85;;
75864;SDS011;64510;46.704;38.274;2023-03-23T15:31:51;13.40;;;8.32;;
75864;SDS011;64510;46.704;38.274;2023-03-23T15:34:24;18.90;;;10.07;;
75864;SDS011;64510;46.704;38.274;2023-03-23T15:36:55;13.18;;;9.48;;
75864;SDS011;64510;46.704;38.274;2023-03-23T15:39:22;24.55;;;10.85;;
75864;SDS011;64510;46.704;38.274;2023-03-23T15:41:49;27.83;;;8.23;;
75864;SDS011;64510;46.704;38.274;2023-03-23T15:46:54;17.23;;;10.20;;
75864;SDS011;64510;46.704;38.274;2023-03-23T15:49:39;23.88;;;9.80;;
75864;SDS011;64510;46.704;38.274;2023-03-23T15:52:07;15.98;;;9.10;;
75864;SDS011;64510;46.704;38.274;2023-03-23T15:54:35;20.45;;;9.30;;
75864;SDS011;64510;46.704;38.274;2023-03-23T15:57:01;16.55;;;9.50;;
75864;SDS011;64510;46.704;38.274;2023-03-23T15:59:27;14.95;;;10.07;;
75864;SDS011;64510;46.704;38.274;2023-03-23T16:01:53;14.27;;;7.78;;
75864;SDS011;64510;46.704;38.274;2023-03-23T16:04:20;12.45;;;6.53;;
75864;SDS011;64510;46.704;38.274;2023-03-23T16:06:46;15.60;;;9.13;;
75864;SDS011;64510;46.704;38.274;2023-03-23T16:09:21;20.27;;;8.75;;
75864;SDS011;64510;46.704;38.274;2023-03-23T16:11:47;14.38;;;7.50;;
75864;SDS011;64510;46.704;38.274;2023-03-23T16:14:13;15.43;;;9.70;;
75864;SDS011;64510;46.704;38.274;2023-03-23T16:16:46;22.90;;;10.20;;
75864;SDS011;64510;46.704;38.274;2023-03-23T16:19:14;9.90;;;5.50;;
75864;SDS011;64510;46.704;38.274;2023-03-23T16:21:41;16.00;;;9.27;;
75864;SDS011;64510;46.704;38.274;2023-03-23T16:24:07;18.10;;;8.60;;
75864;SDS011;64510;46.704;38.274;2023-03-23T16:26:34;14.60;;;9.27;;
75864;SDS011;64510;46.704;38.274;2023-03-23T16:29:00;15.50;;;8.60;;
75864;SDS011;64510;46.704;38.274;2023-03-23T16:31:27;19.25;;;9.77;;
75864;SDS011;64510;46.704;38.274;2023-03-23T16:33:53;18.30;;;10.85;;
75864;SDS011;64510;46.704;38.274;2023-03-23T16:36:19;16.83;;;9.88;;
75864;SDS011;64510;46.704;38.274;2023-03-23T16:38:45;15.43;;;8.32;;
75864;SDS011;64510;46.704;38.274;2023-03-23T16:41:11;15.43;;;8.23;;
75864;SDS011;64510;46.704;38.274;2023-03-23T16:43:37;17.67;;;7.20;;